Avalon, New Jersey
Current Conditions -  °F | °C
As of 2:15 PM on Friday 28 Nov 2014 (Local Time) from KWWD Reporting Station
Clear Clear  
Wind Chill: 29°   Ceiling: Unl
Heat Index: 37°   Visibility: 10mi
Dew Point: 16°   Wind: 14mph
Humidity: 41%   Direction: 310°NW
Pressure: 30.19"   Gusts: 24mph
Location:  39.1°N, 74.72°W
Report Text: KWWD 281915Z AUTO 31012G21KT 290V350 10SM CLR 03/M09 A3019 RMK AO1
Loading
Personal Weather Stations






























Interactive Weather Map New forecast layout! Learn more

10-Day Weather Forecast

Advertisements
Track Severe Weather on mobile